Terminal Aerodrome Forecast
Issued by NWS Cleveland, OH

Home | Current Version | Previous Version | Graphics & Text | Print | Product List | Glossary On
Versions: 1 2 3 4 5 6 7 8 9 10 11 12 13 14 15 16 17 18 19 20 21 22 23 24 25 26 27 28 29
000
FTUS41 KCLE 142300 RRA
TAFCLE
TAF
KCLE 142345Z 1500/1606 30008KT P6SM SCT015 OVC025
      TEMPO 1500/1504 5SM -RA BR BKN015 OVC025
     FM150400 36012KT 5SM -RA BKN007 OVC015
      TEMPO 1505/1509 2SM RA BR OVC007
     FM150900 34012G20KT 1SM -SN BR OVC007
     FM151300 34015G25KT 3SM -SN BR BKN015 OVC025
     FM151400 34015G25KT P6SM BKN025 OVC035
     FM151800 32015G25KT P6SM BKN035
     FM152200 32010KT P6SM SCT035=

USA.gov is the U.S. government's official web portal to all federal, state and local government web resources and services.